Polar Ranger — WDC8652 — position and weather

sailwx.info

Track history (hours):
 
Tides and Currents Weather Stations Pressure Air Temp Water Temp Dewpoint Dewpoint Depression Visibility Wind Speed Wind Dir Waves Ship Positions

Polar Ranger

Owner: Dunlap Towing Co., LaConner, WA. More information available from US FCC via Universal Licensing System and Coast Guard Vessel Documentation Center.

Last reported at 2015-Feb-28 22:19 UTC. Time now 2015-Mar-02 03:39 UTC.
Position N 48°16' W 125°05'.

Type: Tow > 200 m length. MMSI: 367090860.

Date/timePositionNaut miles runAvg speedWind from/ knotsBaromVisibWave heightAir tempDewpointWater temp
2015-Feb-28 22:19N 48°16' W 125°05'8 9.3
2015-Feb-28 21:28N 48°23' W 124°60'7 7.8
2015-Feb-28 20:33N 48°26' W 124°50'9 9.1
2015-Feb-28 19:33N 48°24' W 124°37'1010.0
2015-Feb-28 18:33N 48°20' W 124°23'9 9.4
2015-Feb-28 17:33N 48°16' W 124°10'9 8.4
2015-Feb-28 16:32N 48°13' W 123°59'9 9.2
2015-Feb-28 15:33N 48°12' W 123°45'10 9.8
2015-Feb-28 14:33N 48°11' W 123°31'1010.3
2015-Feb-28 13:34N 48°12' W 123°15'1110.2
2015-Feb-28 12:32N 48°12' W 122°60'10 9.5
2015-Feb-28 11:26N 48°10' W 122°44'8 9.0
2015-Feb-28 10:32N 48°03' W 122°38'8 8.2
2015-Feb-28 09:33N 47°57' W 122°31'3 8.0
2015-Feb-28 09:13N 47°54' W 122°29'5 8.0
2015-Feb-28 08:34N 47°49' W 122°27'8 8.2
2015-Feb-28 07:34N 47°41' W 122°27'6 6.3
2015-Feb-28 06:33N 47°36' W 122°22'0 0.4
2015-Feb-28 05:30N 47°35' W 122°22'0 0.1
2015-Feb-28 05:28N 47°35' W 122°22'1 0.7
2015-Feb-28 04:33N 47°35' W 122°21'0 0.0
2015-Feb-28 04:18N 47°35' W 122°21'0 0.0
2015-Feb-28 03:33N 47°35' W 122°21'0 0.0
2015-Feb-28 03:32N 47°35' W 122°21'0 0.0
2015-Feb-28 02:34N 47°35' W 122°21'0 0.0
2015-Feb-28 02:32N 47°35' W 122°21'0 0.0
2015-Feb-28 01:34N 47°35' W 122°21'0 0.0
2015-Feb-28 01:22N 47°35' W 122°21'0 0.0
2015-Feb-28 00:33N 47°35' W 122°21'0 0.0
2015-Feb-27 23:55N 47°35' W 122°21'0 0.0
2015-Feb-27 23:34N 47°35' W 122°21'0 0.0
2015-Feb-27 23:30N 47°35' W 122°21'9 9.1
2015-Feb-27 22:34N 47°43' W 122°26'112.9
2015-Feb-27 22:30N 47°44' W 122°25'1313.6
2015-Feb-27 21:33N 47°56' W 122°20'5 5.2
2015-Feb-27 20:33N 47°59' W 122°13'0 0.0
2015-Feb-27 19:33N 47°59' W 122°13'0 0.0
2015-Feb-27 18:33N 47°59' W 122°13'0 0.0
2015-Feb-25 18:33N 47°59' W 122°13'3 2.6
2015-Feb-25 17:33N 47°59' W 122°17'  
Track history (hours):
 
Tides and Currents Weather Stations Pressure Air Temp Water Temp Dewpoint Dewpoint Depression Visibility Wind Speed Wind Dir Waves Ship Positions

Polar Ranger

Owner: Dunlap Towing Co., LaConner, WA. More information available from US FCC via Universal Licensing System and Coast Guard Vessel Documentation Center.

Last reported at 2015-Feb-28 22:19 UTC. Time now 2015-Mar-02 03:39 UTC.
Position N 48°16' W 125°05'.

Type: Tow > 200 m length. MMSI: 367090860.

Date/timePositionNaut miles runAvg speedWind from/ knotsBaromVisibWave heightAir tempDewpointWater temp
2015-Feb-28 22:19N 48°16' W 125°05'8 9.3
2015-Feb-28 21:28N 48°23' W 124°60'7 7.8
2015-Feb-28 20:33N 48°26' W 124°50'9 9.1
2015-Feb-28 19:33N 48°24' W 124°37'1010.0
2015-Feb-28 18:33N 48°20' W 124°23'9 9.4
2015-Feb-28 17:33N 48°16' W 124°10'9 8.4
2015-Feb-28 16:32N 48°13' W 123°59'9 9.2
2015-Feb-28 15:33N 48°12' W 123°45'10 9.8
2015-Feb-28 14:33N 48°11' W 123°31'1010.3
2015-Feb-28 13:34N 48°12' W 123°15'1110.2
2015-Feb-28 12:32N 48°12' W 122°60'10 9.5
2015-Feb-28 11:26N 48°10' W 122°44'8 9.0
2015-Feb-28 10:32N 48°03' W 122°38'8 8.2
2015-Feb-28 09:33N 47°57' W 122°31'3 8.0
2015-Feb-28 09:13N 47°54' W 122°29'5 8.0
2015-Feb-28 08:34N 47°49' W 122°27'8 8.2
2015-Feb-28 07:34N 47°41' W 122°27'6 6.3
2015-Feb-28 06:33N 47°36' W 122°22'0 0.4
2015-Feb-28 05:30N 47°35' W 122°22'0 0.1
2015-Feb-28 05:28N 47°35' W 122°22'1 0.7
2015-Feb-28 04:33N 47°35' W 122°21'0 0.0
2015-Feb-28 04:18N 47°35' W 122°21'0 0.0
2015-Feb-28 03:33N 47°35' W 122°21'0 0.0
2015-Feb-28 03:32N 47°35' W 122°21'0 0.0
2015-Feb-28 02:34N 47°35' W 122°21'0 0.0
2015-Feb-28 02:32N 47°35' W 122°21'0 0.0
2015-Feb-28 01:34N 47°35' W 122°21'0 0.0
2015-Feb-28 01:22N 47°35' W 122°21'0 0.0
2015-Feb-28 00:33N 47°35' W 122°21'0 0.0
2015-Feb-27 23:55N 47°35' W 122°21'0 0.0
2015-Feb-27 23:34N 47°35' W 122°21'0 0.0
2015-Feb-27 23:30N 47°35' W 122°21'9 9.1
2015-Feb-27 22:34N 47°43' W 122°26'112.9
2015-Feb-27 22:30N 47°44' W 122°25'1313.6
2015-Feb-27 21:33N 47°56' W 122°20'5 5.2
2015-Feb-27 20:33N 47°59' W 122°13'0 0.0
2015-Feb-27 19:33N 47°59' W 122°13'0 0.0
2015-Feb-27 18:33N 47°59' W 122°13'0 0.0
2015-Feb-25 18:33N 47°59' W 122°13'3 2.6
2015-Feb-25 17:33N 47°59' W 122°17'  

Dump ship's entire track history